createdAt,value
2018-06-22T08:39:20.500Z,20.71
2018-06-22T08:40:20.442Z,20.74
2018-06-22T08:41:20.388Z,20.74
2018-06-22T08:50:07.521Z,21.38
2018-06-22T08:51:07.428Z,21.44
2018-06-22T08:52:07.388Z,21.51
2018-06-22T08:53:07.413Z,21.60
2018-06-22T08:54:07.276Z,21.66
2018-06-22T08:55:07.224Z,21.78
2018-06-22T08:56:07.181Z,21.88
2018-06-22T08:57:07.117Z,21.88
2018-06-22T08:58:07.059Z,21.88
2018-06-22T08:59:07.005Z,22.04
2018-06-22T09:00:06.959Z,21.96
2018-06-22T09:01:06.909Z,22.03
2018-06-22T09:02:06.937Z,22.16
2018-06-22T09:03:06.868Z,22.21
2018-06-22T09:04:06.819Z,22.28
2018-06-22T09:05:06.783Z,22.30
2018-06-22T09:06:06.712Z,22.38
2018-06-22T09:07:06.666Z,22.37
2018-06-22T09:08:00.274Z,22.49
2018-06-22T09:10:44.370Z,22.61
2018-06-22T09:11:44.258Z,22.70
2018-06-22T09:12:54.328Z,22.64
2018-06-22T09:13:04.329Z,22.58
2018-06-22T09:13:14.304Z,22.64
2018-06-22T09:13:24.294Z,22.71
2018-06-22T09:13:34.278Z,22.70
2018-06-22T09:13:44.269Z,22.66
2018-06-22T09:13:54.260Z,22.66
2018-06-22T09:14:04.252Z,22.73
2018-06-22T09:14:14.238Z,22.71
2018-06-22T09:14:24.261Z,22.73
2018-06-22T09:14:34.281Z,22.68
2018-06-22T09:14:44.209Z,22.77
2018-06-22T09:14:54.199Z,22.74
2018-06-22T09:15:04.186Z,22.77
2018-06-22T09:15:14.180Z,22.78
2018-06-22T09:15:24.170Z,22.77
2018-06-22T09:15:34.162Z,22.78
2018-06-22T09:15:44.147Z,22.83
2018-06-22T09:15:54.138Z,22.78
2018-06-22T09:16:04.128Z,22.77
2018-06-22T09:16:14.118Z,22.81
2018-06-22T09:16:24.108Z,22.78
2018-06-22T09:16:34.100Z,22.91
2018-06-22T09:16:44.278Z,22.83
2018-06-22T09:16:54.099Z,22.81
2018-06-22T09:17:04.116Z,22.89
2018-06-22T09:17:14.078Z,22.81
2018-06-22T09:17:24.058Z,22.85
2018-06-22T09:17:34.051Z,22.86
2018-06-22T09:17:44.033Z,22.85
2018-06-22T09:17:54.025Z,22.89
2018-06-22T09:18:04.016Z,22.86
2018-06-22T09:18:14.046Z,22.86
2018-06-22T09:18:24.023Z,22.91
2018-06-22T09:18:33.989Z,22.92
2018-06-22T09:18:43.980Z,22.86
2018-06-22T09:18:53.967Z,22.86
2018-06-22T09:19:03.959Z,22.91
2018-06-22T09:19:13.948Z,22.93
2018-06-22T09:19:23.964Z,22.91
2018-06-22T09:19:34.017Z,22.93
2018-06-22T09:19:43.995Z,22.98
2018-06-22T09:19:53.913Z,22.93
2018-06-22T09:20:03.901Z,22.98
2018-06-22T09:20:13.917Z,22.95
2018-06-22T09:20:23.885Z,22.96
2018-06-22T09:20:33.874Z,22.98
2018-06-22T09:20:43.864Z,22.99
2018-06-22T09:20:53.850Z,23.01
2018-06-22T09:21:03.841Z,22.99
2018-06-22T09:21:13.832Z,23.01
2018-06-22T09:21:23.818Z,22.99
2018-06-22T09:21:33.817Z,23.06
2018-06-22T09:21:43.801Z,22.99
2018-06-22T09:21:53.792Z,23.07
2018-06-22T09:22:03.779Z,23.10
2018-06-22T09:22:13.770Z,23.06
2018-06-22T09:22:23.767Z,23.03
2018-06-22T09:22:33.755Z,22.95
2018-06-22T09:22:43.739Z,22.95
2018-06-22T09:22:53.736Z,23.06
2018-06-22T09:23:03.723Z,23.03
2018-06-22T09:23:13.715Z,23.11
2018-06-22T09:23:23.728Z,23.11
2018-06-22T09:23:33.768Z,23.11
2018-06-22T09:23:43.758Z,23.06
2018-06-22T09:23:53.753Z,23.14
2018-06-22T09:24:03.738Z,23.11
2018-06-22T09:24:13.726Z,23.06
2018-06-22T09:24:23.722Z,23.10
2018-06-22T09:24:33.712Z,23.07
2018-06-22T09:24:43.733Z,23.14
2018-06-22T09:24:53.686Z,23.11
2018-06-22T09:25:03.674Z,23.21
2018-06-22T09:25:13.682Z,23.10
2018-06-22T09:25:23.660Z,23.15
2018-06-22T09:25:33.653Z,23.10
2018-06-22T09:25:43.639Z,23.17
2018-06-22T09:25:53.629Z,23.14
2018-06-22T09:26:28.884Z,23.11
2018-06-22T09:26:38.877Z,23.07
2018-06-22T09:26:48.881Z,23.21
2018-06-22T09:26:58.871Z,23.21
2018-06-22T09:27:08.866Z,23.21
2018-06-22T09:27:18.865Z,23.22
2018-06-22T09:27:28.871Z,23.08
2018-06-22T09:27:38.856Z,23.21
2018-06-22T09:27:48.854Z,23.15
2018-06-22T09:27:58.846Z,23.21
2018-06-22T09:28:08.840Z,23.14
2018-06-22T09:28:18.840Z,23.11
2018-06-22T09:28:28.857Z,23.25
2018-06-22T09:28:38.868Z,23.22
2018-06-22T09:28:48.823Z,23.21
2018-06-22T09:28:58.822Z,23.10
2018-06-22T09:29:08.818Z,23.11
2018-06-22T09:29:18.817Z,23.18
2018-06-22T09:29:28.810Z,23.13
2018-06-22T09:29:38.806Z,23.22
2018-06-22T09:29:48.801Z,23.10
2018-06-22T09:29:58.807Z,23.22
2018-06-22T09:30:08.795Z,23.22
2018-06-22T09:30:18.789Z,23.23
2018-06-22T09:30:28.788Z,23.10
2018-06-22T09:30:38.807Z,23.17
2018-06-22T09:30:48.787Z,23.23
2018-06-22T09:30:58.777Z,23.14
2018-06-22T09:31:08.774Z,23.21
2018-06-22T09:31:18.787Z,23.17
2018-06-22T09:31:28.773Z,23.17
2018-06-22T09:31:38.763Z,23.17
2018-06-22T09:31:48.762Z,23.17
2018-06-22T09:31:58.757Z,23.25
2018-06-22T09:32:08.757Z,23.21
2018-06-22T09:32:18.750Z,23.25
2018-06-22T09:32:28.743Z,23.17
2018-06-22T09:32:38.743Z,23.25
2018-06-22T09:32:48.738Z,23.25
2018-06-22T09:32:58.734Z,23.33
2018-06-22T09:33:08.732Z,23.23
2018-06-22T09:33:18.725Z,23.21
2018-06-22T09:33:28.722Z,23.21
2018-06-22T09:33:38.730Z,23.23
2018-06-22T09:33:48.720Z,23.29
2018-06-22T09:33:58.711Z,23.26
2018-06-22T09:34:08.706Z,23.18
2018-06-22T09:34:18.727Z,23.23
2018-06-22T09:34:28.697Z,23.28
2018-06-22T09:34:38.691Z,23.18
2018-06-22T09:34:48.688Z,23.21
2018-06-22T09:34:58.686Z,23.26
2018-06-22T09:35:08.685Z,23.29
2018-06-22T09:35:18.677Z,23.29
2018-06-22T09:35:28.672Z,23.41
2018-06-22T09:35:38.672Z,23.28
2018-06-22T09:35:48.660Z,23.31
2018-06-22T09:35:58.660Z,23.29
2018-06-22T09:36:08.653Z,23.33
2018-06-22T09:36:18.659Z,23.34
2018-06-22T09:36:28.651Z,23.33
2018-06-22T09:36:38.708Z,23.31
2018-06-22T09:36:48.673Z,23.26
2018-06-22T09:36:58.637Z,23.33
2018-06-22T09:37:08.635Z,23.31
2018-06-22T09:37:18.629Z,23.37
2018-06-22T09:37:28.625Z,23.28
2018-06-22T09:37:38.625Z,23.28
2018-06-22T09:37:48.617Z,23.33
2018-06-22T09:37:58.614Z,23.39
2018-06-22T09:38:08.613Z,23.29
2018-06-22T10:10:40.520Z,22.77
